Local Weather Dagens Jour: Johan Kihlberg Saturday 22nd of September
Flygplats METAR TAF
Airport METAR TAF
ESSL - Linköping220550Z AUTO 25016G26KT 210V290 9999 SCT031/// BKN098/// 12/06 Q0993= RRB 220330Z 2204/2206 22015G27KT 9999 BKN030 TEMPO 2204/2206 SHRA BKN025CB=
ESSP - Norrköping220550Z 24019KT 9999 BKN031 12/07 Q0993= RRA 220330Z 2204/2207 23018G28KT 9999 BKN035 TEMPO 2204/2206 SHRA BKN025CB=
ESGJ - Jönköping220550Z 23015KT 9999 FEW037 09/06 Q0997= 220530Z 2206/2213 23018G29KT 9999 SCT025 BKN030 TEMPO 2206/2213 SHRA BKN020CB=
ESKN - Skavsta220550Z 25020G33KT 9999 FEW031 BKN055 12/06 Q0992= 220530Z 2206/2306 24020G30KT 9999 BKN030 BECMG 2216/2218 23010KT=
ESSV - Visby220550Z 22024KT 9999 FEW022 SCT031 12/07 Q0998= 220530Z 2206/2215 24025G35KT 9999 SCT025=
ESGG - Göteborg220550Z 26021G32KT 240V300 9999 SCT027 BKN045 11/05 Q0999= 220530Z 2206/2306 24023G37KT 9999 BKN035 TEMPO 2207/2219 SHRA BKN025CB BECMG 2217/2219 26012KT=
FLEET STATUS
Flygplan Tid till service Tid till flygstopp Flygtid Landningar
Aircraft Time to service Time to stop Total time Landings
SE-FCEN/AN/A4 902.9 h383 st.
SE-IUD-10.8 h-0.8 h11 310.8 h22 487 st.
SE-KIT48.4 h58.4 h11 651.6 h22 275 st.
SE-KMH-5.0 h0.0 h15 755.0 h59 125 st.
SE-MEB8.0 h18.0 h1 292.0 h3 895 st.
SE-SIMN/AN/A1 192.2 h85 st.
PPR
Ankomst Avgång Flygplan Namn Bränsle
Arrival Departure Aircraft Name Fuel
NOTAM
ESSL/LINKOPING/SAAB
- FREQ FOR TRANSMITTING POSITION AND INTENTIONS WHEN ATS IS CLOSED SHOULD READ 118.805. REF AIP AD 2 ESSL 2.20 PARA 6. FROM: 03 SEP 2018 10:57 TO: PERM ES/B3029/18 - AERODROME CONTROL TOWER (TWR) HOURS OF OPS/SERVICE MON-FRI 0345-2100 SAT 0345-0445, 1500-1615, 2000-2100 SUN 0345-0445, 1415-1530, 2000-2100 FROM: 03 SEP 2018 00:00 TO: 30 SEP 2018 23:59 ES/B2611/18 CONTINUES ON NEXT PAGE ISSUED: 22 SEP 2018 05:55 UTC PAGE: 6(11) - ATTENTION UNMANNED AIRCRAFT. ADDITION TO REGULATION TSFS 2017 110. THE LIMITATIONS IN REGULATION TSFS 2017 110 CHAPTER 3 PARAGRPH 3 APPLIES EVEN THOUGH THE AIRPORT IS CLOSED AND SAAB AND MALMEN CTR ARE NOT ESTABLISHED. FROM: 31 JUL 2018 11:12 TO: 26 OCT 2018 11:30 EST ES/B2657/18
ESCF/LINKOPING/MALMEN
- ATTENTION UNMANNED AIRCRAFT. ADDITION TO REGULATION TSFS 2017 110. THE LIMITATIONS IN REGULATION TSFS 2017 110 CHAPTER 3 PARAGRPH 3 APPLIES EVEN THOUGH THE AIRPORT IS CLOSED AND SAAB AND MALMEN CTR ARE NOT ESTABLISHED. FROM: 31 JUL 2018 09:20 TO: 26 OCT 2018 09:30 EST ES/B2656/18